sensor_id;sensor_type;location;lat;lon;timestamp;temperature;humidity
10512;DHT22;5304;48.604;2.096;2023-08-20T04:39:58;18.50;99.90
10512;DHT22;5304;48.604;2.096;2023-08-20T04:42:42;18.40;99.90
10512;DHT22;5304;48.604;2.096;2023-08-20T04:45:26;18.40;99.90
10512;DHT22;5304;48.604;2.096;2023-08-20T04:48:11;18.40;99.90
10512;DHT22;5304;48.604;2.096;2023-08-20T04:50:55;18.30;99.90
10512;DHT22;5304;48.604;2.096;2023-08-20T04:53:39;18.30;99.90
10512;DHT22;5304;48.604;2.096;2023-08-20T04:56:24;18.30;99.90
10512;DHT22;5304;48.604;2.096;2023-08-20T04:59:08;18.30;99.90
10512;DHT22;5304;48.604;2.096;2023-08-20T05:01:53;18.20;99.90
10512;DHT22;5304;48.604;2.096;2023-08-20T05:04:37;18.40;99.90
10512;DHT22;5304;48.604;2.096;2023-08-20T05:07:22;18.40;99.90
10512;DHT22;5304;48.604;2.096;2023-08-20T05:10:06;18.40;99.90
10512;DHT22;5304;48.604;2.096;2023-08-20T05:12:51;18.30;99.90
10512;DHT22;5304;48.604;2.096;2023-08-20T05:15:35;18.30;99.90
10512;DHT22;5304;48.604;2.096;2023-08-20T05:18:19;18.30;99.90
10512;DHT22;5304;48.604;2.096;2023-08-20T05:21:04;18.30;99.90
10512;DHT22;5304;48.604;2.096;2023-08-20T05:23:48;18.30;99.90
10512;DHT22;5304;48.604;2.096;2023-08-20T05:26:34;18.30;99.90
10512;DHT22;5304;48.604;2.096;2023-08-20T05:29:18;18.30;99.90
10512;DHT22;5304;48.604;2.096;2023-08-20T05:32:03;18.40;99.90
10512;DHT22;5304;48.604;2.096;2023-08-20T05:34:47;18.40;99.90
10512;DHT22;5304;48.604;2.096;2023-08-20T05:37:31;18.40;99.90
10512;DHT22;5304;48.604;2.096;2023-08-20T05:40:16;18.40;99.90
10512;DHT22;5304;48.604;2.096;2023-08-20T05:42:59;18.50;99.90
10512;DHT22;5304;48.604;2.096;2023-08-20T05:45:44;18.60;99.90
10512;DHT22;5304;48.604;2.096;2023-08-20T05:48:28;18.60;99.90
10512;DHT22;5304;48.604;2.096;2023-08-20T05:51:12;18.70;99.90
10512;DHT22;5304;48.604;2.096;2023-08-20T05:53:57;18.70;99.90
10512;DHT22;5304;48.604;2.096;2023-08-20T05:56:41;18.90;99.90
10512;DHT22;5304;48.604;2.096;2023-08-20T05:59:26;18.90;99.90
10512;DHT22;5304;48.604;2.096;2023-08-20T06:02:10;18.90;99.90
10512;DHT22;5304;48.604;2.096;2023-08-20T06:04:54;19.00;99.90
10512;DHT22;5304;48.604;2.096;2023-08-20T06:07:39;19.00;99.90
10512;DHT22;5304;48.604;2.096;2023-08-20T06:10:24;19.10;99.90
10512;DHT22;5304;48.604;2.096;2023-08-20T06:13:08;19.40;99.90
10512;DHT22;5304;48.604;2.096;2023-08-20T06:15:52;19.60;99.90
10512;DHT22;5304;48.604;2.096;2023-08-20T06:18:37;19.70;99.90
10512;DHT22;5304;48.604;2.096;2023-08-20T06:21:21;19.90;99.90
10512;DHT22;5304;48.604;2.096;2023-08-20T06:24:05;20.10;99.90
10512;DHT22;5304;48.604;2.096;2023-08-20T06:26:51;20.20;99.90
10512;DHT22;5304;48.604;2.096;2023-08-20T06:29:35;20.50;99.90
10512;DHT22;5304;48.604;2.096;2023-08-20T06:32:20;20.60;99.90
10512;DHT22;5304;48.604;2.096;2023-08-20T06:35:04;20.90;99.90
10512;DHT22;5304;48.604;2.096;2023-08-20T06:37:49;20.90;99.90
10512;DHT22;5304;48.604;2.096;2023-08-20T06:40:33;21.00;99.90
10512;DHT22;5304;48.604;2.096;2023-08-20T06:43:18;21.30;99.90
10512;DHT22;5304;48.604;2.096;2023-08-20T06:46:02;21.40;99.90
10512;DHT22;5304;48.604;2.096;2023-08-20T06:48:46;21.50;99.90
10512;DHT22;5304;48.604;2.096;2023-08-20T06:51:31;21.50;99.90
10512;DHT22;5304;48.604;2.096;2023-08-20T06:54:15;21.80;99.90
10512;DHT22;5304;48.604;2.096;2023-08-20T06:57:00;22.00;99.90
10512;DHT22;5304;48.604;2.096;2023-08-20T06:59:45;22.40;99.90
10512;DHT22;5304;48.604;2.096;2023-08-20T07:02:29;23.00;99.90
10512;DHT22;5304;48.604;2.096;2023-08-20T07:05:13;23.40;99.90
10512;DHT22;5304;48.604;2.096;2023-08-20T07:07:59;23.50;99.90
10512;DHT22;5304;48.604;2.096;2023-08-20T07:10:43;23.70;99.90
10512;DHT22;5304;48.604;2.096;2023-08-20T07:13:27;24.00;99.90
10512;DHT22;5304;48.604;2.096;2023-08-20T07:16:11;24.10;99.90
10512;DHT22;5304;48.604;2.096;2023-08-20T07:18:56;24.30;99.90
10512;DHT22;5304;48.604;2.096;2023-08-20T07:21:40;24.40;99.90
10512;DHT22;5304;48.604;2.096;2023-08-20T07:24:24;24.60;99.90
10512;DHT22;5304;48.604;2.096;2023-08-20T07:27:13;25.30;99.90
10512;DHT22;5304;48.604;2.096;2023-08-20T07:29:57;25.70;99.90
10512;DHT22;5304;48.604;2.096;2023-08-20T07:32:41;26.60;99.90
10512;DHT22;5304;48.604;2.096;2023-08-20T07:35:26;27.80;99.90
10512;DHT22;5304;48.604;2.096;2023-08-20T07:38:10;29.10;99.90
10512;DHT22;5304;48.604;2.096;2023-08-20T07:40:54;30.30;99.90
10512;DHT22;5304;48.604;2.096;2023-08-20T07:43:39;31.40;99.90
10512;DHT22;5304;48.604;2.096;2023-08-20T07:46:24;32.00;99.90
10512;DHT22;5304;48.604;2.096;2023-08-20T07:49:08;32.00;99.90
10512;DHT22;5304;48.604;2.096;2023-08-20T07:51:52;32.50;99.90
10512;DHT22;5304;48.604;2.096;2023-08-20T07:54:38;32.50;99.90
10512;DHT22;5304;48.604;2.096;2023-08-20T07:57:23;33.50;99.90
10512;DHT22;5304;48.604;2.096;2023-08-20T08:00:07;34.20;99.90
10512;DHT22;5304;48.604;2.096;2023-08-20T08:02:52;34.30;99.90
10512;DHT22;5304;48.604;2.096;2023-08-20T08:05:36;34.40;99.90
10512;DHT22;5304;48.604;2.096;2023-08-20T08:08:22;34.50;99.90
10512;DHT22;5304;48.604;2.096;2023-08-20T08:11:06;34.60;99.90
10512;DHT22;5304;48.604;2.096;2023-08-20T08:13:51;34.70;99.90
10512;DHT22;5304;48.604;2.096;2023-08-20T08:16:35;34.60;99.90
10512;DHT22;5304;48.604;2.096;2023-08-20T08:19:19;35.20;99.90
10512;DHT22;5304;48.604;2.096;2023-08-20T08:22:04;35.40;99.90
10512;DHT22;5304;48.604;2.096;2023-08-20T08:24:48;35.20;99.90
10512;DHT22;5304;48.604;2.096;2023-08-20T08:27:32;34.80;99.90
10512;DHT22;5304;48.604;2.096;2023-08-20T08:30:17;35.00;99.90
10512;DHT22;5304;48.604;2.096;2023-08-20T08:33:02;34.80;99.90
10512;DHT22;5304;48.604;2.096;2023-08-20T08:35:46;34.40;99.90
10512;DHT22;5304;48.604;2.096;2023-08-20T08:38:30;34.40;99.90
10512;DHT22;5304;48.604;2.096;2023-08-20T08:41:14;34.50;99.90
10512;DHT22;5304;48.604;2.096;2023-08-20T08:43:59;34.70;99.90
10512;DHT22;5304;48.604;2.096;2023-08-20T08:46:43;34.40;99.90
10512;DHT22;5304;48.604;2.096;2023-08-20T08:49:27;34.20;99.90
10512;DHT22;5304;48.604;2.096;2023-08-20T08:52:14;34.00;99.90
10512;DHT22;5304;48.604;2.096;2023-08-20T08:54:59;33.80;99.90
10512;DHT22;5304;48.604;2.096;2023-08-20T08:57:43;33.60;99.90
10512;DHT22;5304;48.604;2.096;2023-08-20T09:00:28;33.20;99.90
10512;DHT22;5304;48.604;2.096;2023-08-20T09:03:13;32.80;99.90
10512;DHT22;5304;48.604;2.096;2023-08-20T09:05:59;32.00;99.90
10512;DHT22;5304;48.604;2.096;2023-08-20T09:08:47;31.30;99.90
10512;DHT22;5304;48.604;2.096;2023-08-20T09:11:35;30.80;99.90
10512;DHT22;5304;48.604;2.096;2023-08-20T09:14:28;30.50;99.90
10512;DHT22;5304;48.604;2.096;2023-08-20T09:17:12;30.30;99.90
10512;DHT22;5304;48.604;2.096;2023-08-20T09:19:58;30.10;99.90
10512;DHT22;5304;48.604;2.096;2023-08-20T09:22:48;30.20;99.90
10512;DHT22;5304;48.604;2.096;2023-08-20T09:25:33;30.20;99.90
10512;DHT22;5304;48.604;2.096;2023-08-20T09:28:17;30.20;99.90
10512;DHT22;5304;48.604;2.096;2023-08-20T09:31:01;30.20;99.90
10512;DHT22;5304;48.604;2.096;2023-08-20T09:33:53;30.30;99.90
10512;DHT22;5304;48.604;2.096;2023-08-20T09:36:37;30.30;99.90
10512;DHT22;5304;48.604;2.096;2023-08-20T09:39:22;30.30;99.90
10512;DHT22;5304;48.604;2.096;2023-08-20T09:42:07;30.30;99.90
10512;DHT22;5304;48.604;2.096;2023-08-20T09:44:53;30.20;99.90
10512;DHT22;5304;48.604;2.096;2023-08-20T09:47:38;30.10;99.90
10512;DHT22;5304;48.604;2.096;2023-08-20T09:50:26;30.20;99.90
10512;DHT22;5304;48.604;2.096;2023-08-20T09:56:29;30.40;99.90
10512;DHT22;5304;48.604;2.096;2023-08-20T09:59:14;30.40;99.90
10512;DHT22;5304;48.604;2.096;2023-08-20T10:02:01;30.20;99.90
10512;DHT22;5304;48.604;2.096;2023-08-20T10:04:47;30.20;99.90
10512;DHT22;5304;48.604;2.096;2023-08-20T10:07:35;30.40;99.90
10512;DHT22;5304;48.604;2.096;2023-08-20T10:10:20;30.50;99.90
10512;DHT22;5304;48.604;2.096;2023-08-20T10:13:04;30.60;99.90
10512;DHT22;5304;48.604;2.096;2023-08-20T10:15:49;30.50;99.90
10512;DHT22;5304;48.604;2.096;2023-08-20T10:18:34;30.60;99.90
10512;DHT22;5304;48.604;2.096;2023-08-20T10:21:23;30.60;99.90
10512;DHT22;5304;48.604;2.096;2023-08-20T10:24:07;30.70;99.90
10512;DHT22;5304;48.604;2.096;2023-08-20T10:27:09;30.80;99.90
10512;DHT22;5304;48.604;2.096;2023-08-20T10:29:54;31.00;99.90
10512;DHT22;5304;48.604;2.096;2023-08-20T10:33:05;31.00;99.90
10512;DHT22;5304;48.604;2.096;2023-08-20T10:35:53;30.60;99.90
10512;DHT22;5304;48.604;2.096;2023-08-20T10:38:37;30.60;99.90
10512;DHT22;5304;48.604;2.096;2023-08-20T10:41:26;30.80;99.90
10512;DHT22;5304;48.604;2.096;2023-08-20T10:44:10;31.00;99.90
10512;DHT22;5304;48.604;2.096;2023-08-20T10:46:55;31.20;99.90
10512;DHT22;5304;48.604;2.096;2023-08-20T10:49:39;30.90;99.90
10512;DHT22;5304;48.604;2.096;2023-08-20T10:52:23;31.10;99.90
10512;DHT22;5304;48.604;2.096;2023-08-20T10:55:08;31.30;99.90
10512;DHT22;5304;48.604;2.096;2023-08-20T10:57:57;31.40;99.90
10512;DHT22;5304;48.604;2.096;2023-08-20T11:00:43;31.30;99.90
10512;DHT22;5304;48.604;2.096;2023-08-20T11:03:28;31.50;99.90
10512;DHT22;5304;48.604;2.096;2023-08-20T11:06:12;31.30;99.90
10512;DHT22;5304;48.604;2.096;2023-08-20T11:08:57;31.30;99.90
10512;DHT22;5304;48.604;2.096;2023-08-20T11:11:42;31.30;99.90
10512;DHT22;5304;48.604;2.096;2023-08-20T11:14:26;31.40;99.90
10512;DHT22;5304;48.604;2.096;2023-08-20T11:17:10;31.60;99.90
10512;DHT22;5304;48.604;2.096;2023-08-20T11:19:55;31.90;99.90
10512;DHT22;5304;48.604;2.096;2023-08-20T11:22:39;32.00;99.90
10512;DHT22;5304;48.604;2.096;2023-08-20T11:25:24;32.10;99.90
10512;DHT22;5304;48.604;2.096;2023-08-20T11:28:09;32.10;99.90
10512;DHT22;5304;48.604;2.096;2023-08-20T11:30:54;32.10;99.90
10512;DHT22;5304;48.604;2.096;2023-08-20T11:33:39;32.10;99.90
10512;DHT22;5304;48.604;2.096;2023-08-20T11:36:24;32.00;99.90
10512;DHT22;5304;48.604;2.096;2023-08-20T11:39:09;31.90;99.90
10512;DHT22;5304;48.604;2.096;2023-08-20T11:41:53;31.60;99.90
10512;DHT22;5304;48.604;2.096;2023-08-20T11:44:46;31.60;99.90
10512;DHT22;5304;48.604;2.096;2023-08-20T11:47:38;31.70;99.90
10512;DHT22;5304;48.604;2.096;2023-08-20T11:50:23;31.70;99.90
10512;DHT22;5304;48.604;2.096;2023-08-20T11:53:09;31.30;99.90
10512;DHT22;5304;48.604;2.096;2023-08-20T11:55:54;30.80;99.90
10512;DHT22;5304;48.604;2.096;2023-08-20T11:58:38;30.90;99.90
10512;DHT22;5304;48.604;2.096;2023-08-20T12:01:23;31.00;99.90
10512;DHT22;5304;48.604;2.096;2023-08-20T12:04:09;31.20;99.90
10512;DHT22;5304;48.604;2.096;2023-08-20T12:07:05;30.80;99.90
10512;DHT22;5304;48.604;2.096;2023-08-20T12:09:49;30.80;99.90
10512;DHT22;5304;48.604;2.096;2023-08-20T12:12:34;31.00;99.90
10512;DHT22;5304;48.604;2.096;2023-08-20T12:15:19;31.10;99.90
10512;DHT22;5304;48.604;2.096;2023-08-20T12:18:05;31.50;99.90
10512;DHT22;5304;48.604;2.096;2023-08-20T12:20:49;31.60;99.90
10512;DHT22;5304;48.604;2.096;2023-08-20T12:23:33;31.70;99.90
10512;DHT22;5304;48.604;2.096;2023-08-20T12:26:17;31.70;99.90
10512;DHT22;5304;48.604;2.096;2023-08-20T12:29:02;31.70;99.90
10512;DHT22;5304;48.604;2.096;2023-08-20T12:31:46;31.30;99.90
10512;DHT22;5304;48.604;2.096;2023-08-20T12:34:31;31.10;99.90
10512;DHT22;5304;48.604;2.096;2023-08-20T12:37:17;30.90;99.90
10512;DHT22;5304;48.604;2.096;2023-08-20T12:40:01;31.30;99.90
10512;DHT22;5304;48.604;2.096;2023-08-20T12:42:47;31.80;99.90
10512;DHT22;5304;48.604;2.096;2023-08-20T12:45:32;32.00;99.90
10512;DHT22;5304;48.604;2.096;2023-08-20T12:48:16;32.00;99.90
10512;DHT22;5304;48.604;2.096;2023-08-20T12:51:01;31.70;99.90
10512;DHT22;5304;48.604;2.096;2023-08-20T12:53:47;31.40;99.90
10512;DHT22;5304;48.604;2.096;2023-08-20T12:56:31;30.80;99.90
10512;DHT22;5304;48.604;2.096;2023-08-20T12:59:16;30.50;99.90
10512;DHT22;5304;48.604;2.096;2023-08-20T13:02:00;30.40;99.90
10512;DHT22;5304;48.604;2.096;2023-08-20T13:04:44;30.60;99.90
10512;DHT22;5304;48.604;2.096;2023-08-20T13:07:29;31.00;99.90
10512;DHT22;5304;48.604;2.096;2023-08-20T13:10:14;31.30;99.90
10512;DHT22;5304;48.604;2.096;2023-08-20T13:13:01;31.40;99.90
10512;DHT22;5304;48.604;2.096;2023-08-20T13:15:46;31.50;99.90
10512;DHT22;5304;48.604;2.096;2023-08-20T13:18:31;31.40;99.90
10512;DHT22;5304;48.604;2.096;2023-08-20T13:21:15;31.20;99.90
10512;DHT22;5304;48.604;2.096;2023-08-20T13:24:00;31.00;99.90
10512;DHT22;5304;48.604;2.096;2023-08-20T13:26:44;30.80;99.90
10512;DHT22;5304;48.604;2.096;2023-08-20T13:29:28;31.10;99.90
10512;DHT22;5304;48.604;2.096;2023-08-20T13:32:12;31.40;99.90
10512;DHT22;5304;48.604;2.096;2023-08-20T13:34:57;31.80;99.90
10512;DHT22;5304;48.604;2.096;2023-08-20T13:37:41;31.80;99.90
10512;DHT22;5304;48.604;2.096;2023-08-20T13:40:26;31.60;99.90
10512;DHT22;5304;48.604;2.096;2023-08-20T13:43:10;31.70;99.90
10512;DHT22;5304;48.604;2.096;2023-08-20T13:45:55;31.90;99.90
10512;DHT22;5304;48.604;2.096;2023-08-20T13:48:39;31.70;99.90
10512;DHT22;5304;48.604;2.096;2023-08-20T13:51:23;31.50;99.90
10512;DHT22;5304;48.604;2.096;2023-08-20T13:54:07;31.60;99.90
10512;DHT22;5304;48.604;2.096;2023-08-20T13:56:51;31.90;99.90
10512;DHT22;5304;48.604;2.096;2023-08-20T13:59:36;32.10;99.90
10512;DHT22;5304;48.604;2.096;2023-08-20T14:02:20;32.30;99.90
10512;DHT22;5304;48.604;2.096;2023-08-20T14:05:06;32.30;99.90
10512;DHT22;5304;48.604;2.096;2023-08-20T14:07:50;32.30;99.90
10512;DHT22;5304;48.604;2.096;2023-08-20T14:10:34;32.40;99.90
10512;DHT22;5304;48.604;2.096;2023-08-20T14:13:18;32.30;99.90
10512;DHT22;5304;48.604;2.096;2023-08-20T14:16:03;32.40;99.90
10512;DHT22;5304;48.604;2.096;2023-08-20T14:18:47;32.30;99.90
10512;DHT22;5304;48.604;2.096;2023-08-20T14:21:31;32.00;99.90
10512;DHT22;5304;48.604;2.096;2023-08-20T14:24:16;31.80;99.90
10512;DHT22;5304;48.604;2.096;2023-08-20T14:27:00;31.70;99.90
10512;DHT22;5304;48.604;2.096;2023-08-20T14:29:44;31.90;99.90
10512;DHT22;5304;48.604;2.096;2023-08-20T14:32:29;32.00;99.90
10512;DHT22;5304;48.604;2.096;2023-08-20T14:35:13;31.90;99.90
10512;DHT22;5304;48.604;2.096;2023-08-20T14:37:57;31.80;99.90
10512;DHT22;5304;48.604;2.096;2023-08-20T14:40:42;31.80;99.90
10512;DHT22;5304;48.604;2.096;2023-08-20T14:43:26;32.00;99.90
10512;DHT22;5304;48.604;2.096;2023-08-20T14:46:10;32.10;99.90
10512;DHT22;5304;48.604;2.096;2023-08-20T14:48:54;32.10;99.90
10512;DHT22;5304;48.604;2.096;2023-08-20T14:51:39;32.00;99.90
10512;DHT22;5304;48.604;2.096;2023-08-20T14:54:23;31.70;99.90
10512;DHT22;5304;48.604;2.096;2023-08-20T14:57:08;31.60;99.90
10512;DHT22;5304;48.604;2.096;2023-08-20T14:59:52;31.40;99.90
10512;DHT22;5304;48.604;2.096;2023-08-20T15:02:36;31.40;99.90
10512;DHT22;5304;48.604;2.096;2023-08-20T15:05:20;31.30;99.90
10512;DHT22;5304;48.604;2.096;2023-08-20T15:08:06;31.20;99.90
10512;DHT22;5304;48.604;2.096;2023-08-20T15:10:57;31.00;99.90
10512;DHT22;5304;48.604;2.096;2023-08-20T15:13:42;31.00;99.90
10512;DHT22;5304;48.604;2.096;2023-08-20T15:16:27;31.20;99.90
10512;DHT22;5304;48.604;2.096;2023-08-20T15:19:12;31.30;99.90
10512;DHT22;5304;48.604;2.096;2023-08-20T15:21:56;31.50;99.90
10512;DHT22;5304;48.604;2.096;2023-08-20T15:24:41;31.40;99.90
10512;DHT22;5304;48.604;2.096;2023-08-20T15:27:25;31.40;99.90
10512;DHT22;5304;48.604;2.096;2023-08-20T15:30:10;31.40;99.90
10512;DHT22;5304;48.604;2.096;2023-08-20T15:32:55;31.40;99.90
10512;DHT22;5304;48.604;2.096;2023-08-20T15:35:39;31.50;99.90
10512;DHT22;5304;48.604;2.096;2023-08-20T15:38:24;31.60;99.90
10512;DHT22;5304;48.604;2.096;2023-08-20T15:41:08;31.60;99.90
10512;DHT22;5304;48.604;2.096;2023-08-20T15:43:53;31.40;99.90
10512;DHT22;5304;48.604;2.096;2023-08-20T15:46:37;31.20;99.90
10512;DHT22;5304;48.604;2.096;2023-08-20T15:49:21;31.00;99.90
10512;DHT22;5304;48.604;2.096;2023-08-20T15:52:06;31.00;99.90
10512;DHT22;5304;48.604;2.096;2023-08-20T15:54:50;30.80;99.90
10512;DHT22;5304;48.604;2.096;2023-08-20T15:57:35;30.80;99.90
10512;DHT22;5304;48.604;2.096;2023-08-20T16:00:19;30.80;99.90
10512;DHT22;5304;48.604;2.096;2023-08-20T16:03:05;30.50;99.90
10512;DHT22;5304;48.604;2.096;2023-08-20T16:05:49;30.50;99.90
10512;DHT22;5304;48.604;2.096;2023-08-20T16:08:33;30.50;99.90
10512;DHT22;5304;48.604;2.096;2023-08-20T16:11:18;30.40;99.90
10512;DHT22;5304;48.604;2.096;2023-08-20T16:14:02;30.40;99.90
10512;DHT22;5304;48.604;2.096;2023-08-20T16:16:46;30.30;99.90
10512;DHT22;5304;48.604;2.096;2023-08-20T16:19:30;30.10;99.90
10512;DHT22;5304;48.604;2.096;2023-08-20T16:22:14;29.90;99.90
10512;DHT22;5304;48.604;2.096;2023-08-20T16:24:59;29.70;99.90
10512;DHT22;5304;48.604;2.096;2023-08-20T16:27:43;29.50;99.90
10512;DHT22;5304;48.604;2.096;2023-08-20T16:30:27;29.40;99.90
10512;DHT22;5304;48.604;2.096;2023-08-20T16:33:12;29.50;99.90
10512;DHT22;5304;48.604;2.096;2023-08-20T16:35:56;29.60;99.90
10512;DHT22;5304;48.604;2.096;2023-08-20T16:38:40;29.50;99.90
10512;DHT22;5304;48.604;2.096;2023-08-20T16:41:25;29.50;99.90
10512;DHT22;5304;48.604;2.096;2023-08-20T16:44:09;29.50;99.90
10512;DHT22;5304;48.604;2.096;2023-08-20T16:46:53;29.50;99.90
10512;DHT22;5304;48.604;2.096;2023-08-20T16:49:40;29.50;99.90
10512;DHT22;5304;48.604;2.096;2023-08-20T16:52:25;29.50;99.90
10512;DHT22;5304;48.604;2.096;2023-08-20T16:55:09;29.40;99.90
10512;DHT22;5304;48.604;2.096;2023-08-20T16:57:54;29.40;99.90
10512;DHT22;5304;48.604;2.096;2023-08-20T17:00:38;29.40;99.90
10512;DHT22;5304;48.604;2.096;2023-08-20T17:03:22;29.40;99.90
10512;DHT22;5304;48.604;2.096;2023-08-20T17:06:08;29.30;99.90
10512;DHT22;5304;48.604;2.096;2023-08-20T17:08:52;29.30;99.90
10512;DHT22;5304;48.604;2.096;2023-08-20T17:11:36;29.20;99.90
10512;DHT22;5304;48.604;2.096;2023-08-20T17:14:20;29.20;99.90
10512;DHT22;5304;48.604;2.096;2023-08-20T17:17:05;29.20;99.90
10512;DHT22;5304;48.604;2.096;2023-08-20T17:19:49;29.20;99.90
10512;DHT22;5304;48.604;2.096;2023-08-20T17:22:33;29.20;99.90
10512;DHT22;5304;48.604;2.096;2023-08-20T17:25:18;29.10;99.90
10512;DHT22;5304;48.604;2.096;2023-08-20T17:28:03;29.00;99.90
10512;DHT22;5304;48.604;2.096;2023-08-20T17:30:48;28.90;99.90
10512;DHT22;5304;48.604;2.096;2023-08-20T17:33:34;28.70;99.90
10512;DHT22;5304;48.604;2.096;2023-08-20T17:36:18;28.70;99.90
10512;DHT22;5304;48.604;2.096;2023-08-20T17:39:02;28.50;99.90
10512;DHT22;5304;48.604;2.096;2023-08-20T17:41:47;28.40;99.90
10512;DHT22;5304;48.604;2.096;2023-08-20T17:44:33;28.40;99.90
10512;DHT22;5304;48.604;2.096;2023-08-20T17:47:17;28.30;99.90
10512;DHT22;5304;48.604;2.096;2023-08-20T17:50:02;28.30;99.90
10512;DHT22;5304;48.604;2.096;2023-08-20T17:52:46;28.20;99.90
10512;DHT22;5304;48.604;2.096;2023-08-20T17:55:33;28.10;99.90
10512;DHT22;5304;48.604;2.096;2023-08-20T17:58:18;28.00;99.90
10512;DHT22;5304;48.604;2.096;2023-08-20T18:01:02;27.90;99.90
10512;DHT22;5304;48.604;2.096;2023-08-20T18:03:47;27.80;99.90
10512;DHT22;5304;48.604;2.096;2023-08-20T18:06:31;27.70;99.90
10512;DHT22;5304;48.604;2.096;2023-08-20T18:09:16;27.60;99.90
10512;DHT22;5304;48.604;2.096;2023-08-20T18:12:01;27.50;99.90
10512;DHT22;5304;48.604;2.096;2023-08-20T18:14:45;27.50;99.90
10512;DHT22;5304;48.604;2.096;2023-08-20T18:17:30;27.50;99.90
10512;DHT22;5304;48.604;2.096;2023-08-20T18:20:14;27.40;99.90
10512;DHT22;5304;48.604;2.096;2023-08-20T18:22:59;27.40;99.90
10512;DHT22;5304;48.604;2.096;2023-08-20T18:25:43;27.40;99.90
10512;DHT22;5304;48.604;2.096;2023-08-20T18:28:28;27.40;99.90
10512;DHT22;5304;48.604;2.096;2023-08-20T18:31:13;27.30;99.90
10512;DHT22;5304;48.604;2.096;2023-08-20T18:33:57;27.20;99.90
10512;DHT22;5304;48.604;2.096;2023-08-20T18:36:43;27.00;99.90
10512;DHT22;5304;48.604;2.096;2023-08-20T18:39:27;26.90;99.90
10512;DHT22;5304;48.604;2.096;2023-08-20T18:42:11;26.80;99.90
10512;DHT22;5304;48.604;2.096;2023-08-20T18:44:55;26.70;99.90
10512;DHT22;5304;48.604;2.096;2023-08-20T18:47:40;26.60;99.90
10512;DHT22;5304;48.604;2.096;2023-08-20T18:50:24;26.50;99.90
10512;DHT22;5304;48.604;2.096;2023-08-20T18:53:08;26.40;99.90
10512;DHT22;5304;48.604;2.096;2023-08-20T18:55:53;26.20;99.90
10512;DHT22;5304;48.604;2.096;2023-08-20T18:58:37;26.20;99.90
10512;DHT22;5304;48.604;2.096;2023-08-20T19:01:22;26.20;99.90
10512;DHT22;5304;48.604;2.096;2023-08-20T19:04:06;26.10;99.90
10512;DHT22;5304;48.604;2.096;2023-08-20T19:06:51;26.00;99.90
10512;DHT22;5304;48.604;2.096;2023-08-20T19:09:35;26.00;99.90
10512;DHT22;5304;48.604;2.096;2023-08-20T19:12:21;25.90;99.90
10512;DHT22;5304;48.604;2.096;2023-08-20T19:15:06;25.90;99.90
10512;DHT22;5304;48.604;2.096;2023-08-20T19:17:50;25.80;99.90
10512;DHT22;5304;48.604;2.096;2023-08-20T19:20:35;25.70;99.90
10512;DHT22;5304;48.604;2.096;2023-08-20T19:23:20;25.60;99.90
10512;DHT22;5304;48.604;2.096;2023-08-20T19:26:04;25.60;99.90
10512;DHT22;5304;48.604;2.096;2023-08-20T19:28:48;25.50;99.90
10512;DHT22;5304;48.604;2.096;2023-08-20T19:31:32;25.40;99.90
10512;DHT22;5304;48.604;2.096;2023-08-20T19:34:17;25.30;99.90
10512;DHT22;5304;48.604;2.096;2023-08-20T19:37:02;25.30;99.90
10512;DHT22;5304;48.604;2.096;2023-08-20T19:39:46;25.20;99.90
10512;DHT22;5304;48.604;2.096;2023-08-20T19:42:31;25.20;99.90
10512;DHT22;5304;48.604;2.096;2023-08-20T19:45:15;25.20;99.90
10512;DHT22;5304;48.604;2.096;2023-08-20T19:48:00;25.10;99.90
10512;DHT22;5304;48.604;2.096;2023-08-20T19:50:44;25.10;99.90
10512;DHT22;5304;48.604;2.096;2023-08-20T19:53:28;25.00;99.90
10512;DHT22;5304;48.604;2.096;2023-08-20T19:56:12;25.00;99.90
10512;DHT22;5304;48.604;2.096;2023-08-20T19:58:57;24.90;99.90
10512;DHT22;5304;48.604;2.096;2023-08-20T20:01:48;24.90;99.90
10512;DHT22;5304;48.604;2.096;2023-08-20T20:04:32;24.80;99.90
10512;DHT22;5304;48.604;2.096;2023-08-20T20:07:17;24.70;99.90
10512;DHT22;5304;48.604;2.096;2023-08-20T20:10:05;24.60;99.90
10512;DHT22;5304;48.604;2.096;2023-08-20T20:12:50;24.60;99.90
10512;DHT22;5304;48.604;2.096;2023-08-20T20:15:34;24.60;99.90
10512;DHT22;5304;48.604;2.096;2023-08-20T20:18:18;24.50;99.90
10512;DHT22;5304;48.604;2.096;2023-08-20T20:21:02;24.50;99.90
10512;DHT22;5304;48.604;2.096;2023-08-20T20:23:48;24.40;99.90
10512;DHT22;5304;48.604;2.096;2023-08-20T20:26:32;24.40;99.90
10512;DHT22;5304;48.604;2.096;2023-08-20T20:29:16;24.30;99.90
10512;DHT22;5304;48.604;2.096;2023-08-20T20:32:01;24.30;99.90
